Time;durP1;ratioP1;P1;durP2;ratioP2;P2;SDS_P1;SDS_P2;PMS_P1;PMS_P2;Temp;Humidity;BMP_temperature;BMP_pressure;BME280_temperature;BME280_humidity;BME280_pressure;Samples;Min_cycle;Max_cycle;Signal;HPM_P1;HPM_P2
2022/06/20 00:00:58;;;;;;;11.27;2.30;;;12.70;88.10;;;;;;5047655;28;20029;-84
2022/06/20 00:03:43;;;;;;;11.20;1.92;;;12.80;87.80;;;;;;5050738;28;20028;-84
2022/06/20 00:06:17;;;;;;;5.22;1.70;;;12.80;87.70;;;;;;5050160;28;20032;-85
2022/06/20 00:08:43;;;;;;;13.40;2.28;;;12.70;87.90;;;;;;5049517;28;20441;-84
2022/06/20 00:11:38;;;;;;;7.00;1.70;;;12.70;87.60;;;;;;5050890;28;20028;-84
2022/06/20 00:14:04;;;;;;;10.13;2.05;;;12.70;87.70;;;;;;5068146;28;20053;-84
2022/06/20 00:16:32;;;;;;;10.57;2.15;;;12.60;88.00;;;;;;5050940;28;20382;-84
2022/06/20 00:19:01;;;;;;;8.65;2.00;;;12.60;88.20;;;;;;5063387;28;20028;-84
2022/06/20 00:21:27;;;;;;;6.70;2.13;;;12.60;88.20;;;;;;5059615;28;20115;-84
2022/06/20 00:24:00;;;;;;;9.85;2.00;;;12.60;88.30;;;;;;5050761;28;20095;-84
2022/06/20 00:26:28;;;;;;;9.60;2.00;;;12.60;88.60;;;;;;5065375;28;20487;-84
2022/06/20 00:28:58;;;;;;;10.02;2.00;;;12.50;88.80;;;;;;5051350;28;20029;-84
2022/06/20 00:31:26;;;;;;;8.52;2.30;;;12.50;88.70;;;;;;5052903;28;20035;-84
2022/06/20 00:34:00;;;;;;;11.15;2.38;;;12.50;88.70;;;;;;5049458;28;20033;-84
2022/06/20 00:36:26;;;;;;;5.60;1.88;;;12.40;88.60;;;;;;5056653;28;20396;-84
2022/06/20 00:38:56;;;;;;;7.55;1.80;;;12.40;89.00;;;;;;5055310;28;20121;-84
2022/06/20 00:41:40;;;;;;;8.02;1.90;;;12.40;89.10;;;;;;5052073;28;20035;-84
2022/06/20 00:44:14;;;;;;;8.07;2.00;;;12.40;88.90;;;;;;5073176;28;20190;-84
2022/06/20 00:46:47;;;;;;;12.77;2.33;;;12.40;89.10;;;;;;5059265;28;20051;-84
2022/06/20 00:49:27;;;;;;;6.00;2.10;;;12.40;88.90;;;;;;5071795;28;20093;-84
2022/06/20 00:52:00;;;;;;;10.02;2.10;;;12.40;88.80;;;;;;5069565;28;20025;-84
2022/06/20 00:54:54;;;;;;;7.35;2.08;;;12.40;89.10;;;;;;5050521;28;20131;-84
2022/06/20 00:57:29;;;;;;;6.93;1.98;;;12.30;89.10;;;;;;5056153;28;20081;-84
2022/06/20 01:00:23;;;;;;;5.95;1.95;;;12.40;89.10;;;;;;5052818;28;20115;-84
2022/06/20 01:02:55;;;;;;;5.55;2.08;;;12.30;89.10;;;;;;5053234;28;20502;-84
2022/06/20 01:05:30;;;;;;;7.78;2.45;;;12.30;88.90;;;;;;5055475;28;20020;-84
2022/06/20 01:08:08;;;;;;;7.13;1.88;;;12.30;89.10;;;;;;5057371;28;20020;-84
2022/06/20 01:10:50;;;;;;;4.30;1.85;;;12.20;89.50;;;;;;5057926;28;20040;-84
2022/06/20 01:13:24;;;;;;;10.45;2.42;;;12.10;90.00;;;;;;5076346;28;20064;-84
2022/06/20 01:15:52;;;;;;;5.70;2.25;;;12.10;90.30;;;;;;5049270;28;20025;-84
2022/06/20 01:19:03;;;;;;;10.95;2.28;;;12.00;90.30;;;;;;5064372;28;20025;-84
2022/06/20 01:21:45;;;;;;;8.07;1.70;;;11.90;90.90;;;;;;5051132;28;20053;-84
2022/06/20 01:24:43;;;;;;;6.32;2.05;;;11.80;91.10;;;;;;5056301;28;20480;-84
2022/06/20 01:27:30;;;;;;;10.60;2.42;;;11.70;91.00;;;;;;5058248;28;20020;-83
2022/06/20 01:30:15;;;;;;;7.00;1.92;;;11.70;91.30;;;;;;5057833;28;20052;-84
2022/06/20 01:32:44;;;;;;;7.22;2.35;;;11.70;91.80;;;;;;5077136;28;20024;-84
2022/06/20 01:38:16;;;;;;;5.45;2.03;;;11.70;91.40;;;;;;5072552;28;20067;-84
2022/06/20 01:43:32;;;;;;;5.32;2.17;;;11.80;91.40;;;;;;5074613;28;20027;-84
2022/06/20 01:46:09;;;;;;;10.40;2.33;;;11.70;91.60;;;;;;5060587;28;20024;-84
2022/06/20 01:48:49;;;;;;;9.05;2.47;;;11.80;92.10;;;;;;5055338;28;20025;-84
2022/06/20 01:51:35;;;;;;;11.02;2.08;;;11.80;91.80;;;;;;5056841;28;20455;-84
2022/06/20 01:54:12;;;;;;;9.63;2.70;;;11.80;91.90;;;;;;5074762;28;20479;-84
2022/06/20 01:56:46;;;;;;;9.23;2.03;;;11.70;92.00;;;;;;5056731;28;20485;-84
2022/06/20 01:59:49;;;;;;;8.07;2.17;;;11.70;92.00;;;;;;5069818;28;20480;-84
2022/06/20 02:02:19;;;;;;;10.55;2.45;;;11.70;92.20;;;;;;5018441;28;20501;-84
2022/06/20 02:04:51;;;;;;;5.10;2.10;;;11.80;91.90;;;;;;5062657;28;20047;-84
2022/06/20 02:07:22;;;;;;;5.28;2.22;;;11.70;91.80;;;;;;5059868;28;20570;-84
2022/06/20 02:09:48;;;;;;;10.55;2.88;;;11.70;91.90;;;;;;5056038;28;20052;-84
2022/06/20 02:12:23;;;;;;;7.22;2.15;;;11.70;91.80;;;;;;5057684;28;20098;-84
2022/06/20 02:15:37;;;;;;;8.32;2.55;;;11.60;91.90;;;;;;5056249;28;20063;-84
2022/06/20 02:18:23;;;;;;;;;;;;;;;;;;;;;
2022/06/20 02:20:52;;;;;;;6.50;2.30;;;11.60;92.30;;;;;;5073088;28;20387;-84
2022/06/20 02:23:28;;;;;;;13.05;2.80;;;11.60;92.20;;;;;;5054204;28;20074;-84
2022/06/20 02:26:17;;;;;;;7.25;2.45;;;11.50;92.20;;;;;;5056756;28;20135;-84
2022/06/20 02:29:22;;;;;;;6.40;2.50;;;11.50;92.30;;;;;;5069996;28;20029;-84
2022/06/20 02:32:03;;;;;;;11.02;2.05;;;11.40;92.50;;;;;;5052717;28;20029;-84
2022/06/20 02:34:30;;;;;;;11.35;2.88;;;11.40;92.20;;;;;;5068232;28;20036;-84
2022/06/20 02:37:09;;;;;;;7.25;2.45;;;11.40;92.30;;;;;;5074213;28;20059;-84
2022/06/20 02:39:50;;;;;;;5.93;2.60;;;11.30;92.10;;;;;;5073440;28;20024;-84
2022/06/20 02:42:23;;;;;;;;;;;11.30;91.90;;;;;;5051122;28;20021;-83
2022/06/20 02:44:52;;;;;;;10.35;2.70;;;11.20;92.20;;;;;;5053008;28;19915;-84
2022/06/20 02:47:31;;;;;;;6.70;2.70;;;11.10;92.60;;;;;;5065124;28;20479;-84
2022/06/20 02:50:10;;;;;;;9.38;2.85;;;11.10;92.40;;;;;;5058323;28;20078;-84
2022/06/20 02:53:09;;;;;;;8.35;2.53;;;11.00;92.80;;;;;;5057797;28;20034;-84
2022/06/20 02:55:37;;;;;;;6.78;2.92;;;10.90;93.50;;;;;;5053174;28;20510;-84
2022/06/20 02:58:25;;;;;;;11.50;2.97;;;10.90;93.80;;;;;;5060704;28;20086;-84
2022/06/20 03:00:58;;;;;;;9.68;3.00;;;10.90;93.90;;;;;;5048149;28;20036;-84
2022/06/20 03:03:40;;;;;;;9.70;3.58;;;10.80;93.90;;;;;;5064330;28;20029;-84
2022/06/20 03:06:12;;;;;;;10.65;3.25;;;10.80;94.10;;;;;;5052488;28;20085;-84
2022/06/20 03:08:38;;;;;;;9.27;3.15;;;10.90;94.20;;;;;;5071252;28;20032;-84
2022/06/20 03:11:08;;;;;;;12.20;3.65;;;10.80;94.30;;;;;;5079918;28;20085;-84
2022/06/20 03:13:36;;;;;;;11.02;3.50;;;10.80;94.30;;;;;;5056477;28;20045;-84
2022/06/20 03:16:05;;;;;;;10.40;3.63;;;10.80;94.30;;;;;;5056908;28;20120;-84
2022/06/20 03:18:39;;;;;;;9.63;3.55;;;10.80;94.20;;;;;;5069380;28;20031;-84
2022/06/20 03:21:11;;;;;;;11.07;3.70;;;10.80;94.20;;;;;;5056897;28;20032;-84
2022/06/20 03:23:37;;;;;;;13.77;4.03;;;10.80;94.20;;;;;;5058648;28;20704;-84
2022/06/20 03:26:06;;;;;;;8.80;3.80;;;10.90;94.20;;;;;;5073637;28;20024;-84
2022/06/20 03:28:35;;;;;;;10.63;3.60;;;10.90;94.10;;;;;;5060086;28;20040;-84
2022/06/20 03:31:02;;;;;;;8.30;3.47;;;11.00;94.30;;;;;;5070744;28;20033;-84
2022/06/20 03:33:33;;;;;;;10.13;3.47;;;11.00;94.20;;;;;;5053816;28;20449;-84
2022/06/20 03:36:23;;;;;;;8.35;3.65;;;11.20;94.20;;;;;;5075055;28;20028;-84
2022/06/20 03:38:49;;;;;;;11.02;3.60;;;11.20;93.90;;;;;;5053021;28;20029;-84
2022/06/20 03:41:21;;;;;;;9.27;3.35;;;11.30;93.80;;;;;;5072228;28;20021;-84
2022/06/20 03:44:04;;;;;;;9.18;3.00;;;11.40;93.50;;;;;;5059960;28;20020;-84
2022/06/20 03:46:37;;;;;;;9.90;3.33;;;11.40;93.50;;;;;;5055149;28;20514;-84
2022/06/20 03:49:09;;;;;;;11.85;3.45;;;11.40;93.30;;;;;;5057762;28;20029;-83
2022/06/20 03:51:45;;;;;;;11.02;3.38;;;11.50;93.10;;;;;;5058045;28;20124;-84
2022/06/20 03:54:27;;;;;;;11.27;3.67;;;11.50;93.10;;;;;;5067688;28;20028;-84
2022/06/20 03:57:07;;;;;;;9.70;3.50;;;11.50;92.90;;;;;;5048198;28;20082;-84
2022/06/20 03:59:52;;;;;;;13.43;3.70;;;11.50;92.80;;;;;;5054934;28;20487;-84
2022/06/20 04:02:52;;;;;;;9.55;3.17;;;11.50;92.80;;;;;;5057988;28;20039;-84
2022/06/20 04:05:40;;;;;;;8.00;3.38;;;11.60;92.70;;;;;;5052397;28;20112;-84
2022/06/20 04:08:15;;;;;;;8.35;3.63;;;11.60;92.50;;;;;;5054912;28;20031;-84
2022/06/20 04:11:03;;;;;;;7.57;3.30;;;11.70;92.50;;;;;;5065548;28;20112;-84
2022/06/20 04:13:39;;;;;;;13.77;3.47;;;11.80;92.30;;;;;;5057587;28;20049;-83
2022/06/20 04:16:15;;;;;;;9.90;3.30;;;11.70;92.30;;;;;;5046774;28;20052;-85
2022/06/20 04:18:45;;;;;;;7.40;3.15;;;11.70;92.30;;;;;;5074005;28;20467;-85
2022/06/20 04:21:17;;;;;;;9.60;3.63;;;11.80;92.30;;;;;;5056271;28;20443;-85
2022/06/20 04:23:54;;;;;;;10.27;3.33;;;11.70;91.80;;;;;;5054719;28;20480;-85
2022/06/20 04:26:31;;;;;;;7.45;2.92;;;11.90;92.10;;;;;;5049981;28;20056;-85
2022/06/20 04:29:11;;;;;;;7.82;2.85;;;12.00;91.90;;;;;;5069654;28;20082;-83
2022/06/20 04:31:45;;;;;;;12.85;3.30;;;12.10;91.80;;;;;;5054657;28;20115;-84
2022/06/20 04:34:31;;;;;;;7.72;3.03;;;11.90;91.20;;;;;;5045011;28;20505;-84
2022/06/20 04:37:22;;;;;;;13.40;3.03;;;11.90;91.60;;;;;;5057749;28;20028;-84
2022/06/20 04:40:25;;;;;;;9.82;3.50;;;11.90;91.50;;;;;;5053742;28;20476;-83
2022/06/20 04:42:51;;;;;;;9.50;3.25;;;12.10;91.70;;;;;;5067299;28;20047;-84
2022/06/20 04:45:32;;;;;;;8.85;3.13;;;12.10;91.60;;;;;;5055033;28;20107;-84
2022/06/20 04:48:14;;;;;;;10.73;3.50;;;12.10;91.30;;;;;;5052036;28;20421;-82
2022/06/20 04:50:44;;;;;;;9.02;3.25;;;12.10;91.10;;;;;;5066527;28;20039;-84
2022/06/20 04:53:13;;;;;;;13.20;3.30;;;12.30;91.10;;;;;;5052414;28;20029;-83
2022/06/20 04:55:42;;;;;;;10.73;3.15;;;12.30;91.00;;;;;;5053084;28;20511;-83
2022/06/20 04:58:12;;;;;;;8.88;3.13;;;12.40;90.90;;;;;;5072989;28;20046;-83
2022/06/20 05:00:41;;;;;;;9.60;2.97;;;12.50;90.50;;;;;;5055632;28;20033;-83
2022/06/20 05:03:10;;;;;;;6.95;3.42;;;12.50;89.90;;;;;;5054917;28;20027;-84
2022/06/20 05:05:41;;;;;;;9.68;3.20;;;12.60;89.70;;;;;;5057825;28;20029;-83
2022/06/20 05:08:12;;;;;;;9.57;3.33;;;12.70;89.50;;;;;;5055056;28;20521;-83
2022/06/20 05:10:47;;;;;;;8.00;2.90;;;12.80;89.00;;;;;;5056660;28;20117;-84
2022/06/20 05:13:19;;;;;;;9.40;3.22;;;12.80;88.80;;;;;;5072370;28;20564;-84
2022/06/20 05:15:47;;;;;;;8.10;3.15;;;12.80;88.40;;;;;;5054807;28;20035;-83
2022/06/20 05:18:35;;;;;;;10.88;3.40;;;12.90;88.60;;;;;;5055642;28;20035;-83
2022/06/20 05:21:12;;;;;;;11.13;3.33;;;12.90;88.50;;;;;;5063800;28;20039;-83
2022/06/20 05:23:41;;;;;;;8.93;2.88;;;12.80;88.40;;;;;;5069619;28;20029;-83
2022/06/20 05:26:09;;;;;;;10.00;2.67;;;12.90;88.80;;;;;;5053366;28;20111;-83
2022/06/20 05:28:38;;;;;;;7.80;3.30;;;13.00;88.70;;;;;;5072297;28;20036;-83
2022/06/20 05:31:06;;;;;;;15.02;3.13;;;13.00;88.70;;;;;;5072105;28;20026;-83
2022/06/20 05:33:41;;;;;;;7.47;3.30;;;13.00;88.80;;;;;;5041487;28;20033;-83
2022/06/20 05:36:18;;;;;;;6.28;2.55;;;12.90;88.90;;;;;;5043789;28;20024;-84
2022/06/20 05:38:56;;;;;;;13.52;3.05;;;12.90;88.40;;;;;;5066375;28;20029;-84
2022/06/20 05:41:22;;;;;;;10.40;2.83;;;12.90;87.70;;;;;;5062390;28;20021;-84
2022/06/20 05:43:48;;;;;;;9.60;2.30;;;13.00;88.00;;;;;;5067668;28;20073;-84
2022/06/20 05:46:35;;;;;;;12.93;2.85;;;13.10;87.90;;;;;;5069598;28;20195;-84
2022/06/20 05:49:05;;;;;;;8.80;2.42;;;13.20;87.90;;;;;;5046310;28;20136;-84
2022/06/20 05:51:35;;;;;;;14.07;2.67;;;13.20;87.60;;;;;;5039469;28;20174;-83
2022/06/20 05:54:12;;;;;;;7.18;2.45;;;13.10;87.50;;;;;;5045508;28;20116;-84
2022/06/20 05:57:00;;;;;;;8.18;2.10;;;13.40;87.80;;;;;;5052392;28;20032;-84
2022/06/20 05:59:32;;;;;;;8.30;2.08;;;13.40;86.50;;;;;;5052272;28;20054;-83
2022/06/20 06:02:03;;;;;;;11.95;2.58;;;13.40;86.30;;;;;;5050166;28;20024;-83
2022/06/20 06:04:40;;;;;;;7.30;2.33;;;13.50;86.80;;;;;;5063202;28;20050;-84
2022/06/20 06:07:14;;;;;;;10.25;2.78;;;13.60;86.20;;;;;;5063802;28;20024;-84
2022/06/20 06:09:54;;;;;;;12.73;2.80;;;13.50;85.80;;;;;;5046271;28;20107;-83
2022/06/20 06:12:46;;;;;;;9.55;2.47;;;13.60;85.80;;;;;;5068393;28;20036;-83
2022/06/20 06:15:30;;;;;;;8.75;2.28;;;13.80;85.70;;;;;;5051909;28;20096;-83
2022/06/20 06:18:00;;;;;;;12.25;2.67;;;14.00;85.40;;;;;;5064914;28;20033;-83
2022/06/20 06:20:28;;;;;;;7.78;2.13;;;14.00;84.00;;;;;;5049551;28;20447;-83
2022/06/20 06:23:04;;;;;;;12.05;2.00;;;14.10;83.90;;;;;;5048586;28;20016;-83
2022/06/20 06:25:38;;;;;;;6.43;2.20;;;14.30;83.60;;;;;;5036740;28;20092;-83
2022/06/20 06:28:14;;;;;;;8.73;2.15;;;14.30;82.80;;;;;;5053959;28;20090;-82
2022/06/20 06:30:46;;;;;;;11.50;2.20;;;14.60;82.50;;;;;;5067691;28;20158;-83
2022/06/20 06:33:24;;;;;;;8.98;2.13;;;14.70;81.90;;;;;;5066667;28;20059;-82
2022/06/20 06:36:04;;;;;;;11.98;1.73;;;14.80;81.50;;;;;;5045419;28;20201;-82
2022/06/20 06:38:45;;;;;;;6.63;1.80;;;15.10;81.40;;;;;;5066255;28;20115;-82
2022/06/20 06:41:20;;;;;;;4.45;1.23;;;15.50;79.40;;;;;;5067948;28;20055;-82
2022/06/20 06:43:48;;;;;;;10.57;1.80;;;15.60;78.40;;;;;;5070077;28;20036;-82
2022/06/20 06:46:33;;;;;;;11.52;1.95;;;15.60;77.80;;;;;;5066076;28;20017;-82
2022/06/20 06:49:14;;;;;;;5.75;1.35;;;15.30;78.50;;;;;;5047452;28;20024;-82
2022/06/20 06:52:01;;;;;;;7.43;1.77;;;15.10;78.30;;;;;;5045759;28;20029;-83
2022/06/20 06:54:51;;;;;;;6.05;1.40;;;15.10;79.20;;;;;;5046924;28;20099;-84
2022/06/20 06:57:30;;;;;;;4.75;1.52;;;15.10;78.70;;;;;;5047736;28;20364;-84
2022/06/20 07:00:14;;;;;;;4.88;1.30;;;15.50;77.40;;;;;;5042419;28;20028;-83
2022/06/20 07:02:47;;;;;;;4.38;1.27;;;15.30;77.20;;;;;;5064477;28;20113;-83
2022/06/20 07:05:34;;;;;;;6.75;1.55;;;15.30;77.20;;;;;;5063362;28;20028;-83
2022/06/20 07:08:02;;;;;;;7.47;1.40;;;15.60;75.80;;;;;;5047106;28;20505;-84
2022/06/20 07:10:43;;;;;;;4.88;1.30;;;16.00;75.40;;;;;;5041938;28;20036;-83
2022/06/20 07:13:21;;;;;;;3.72;1.00;;;16.40;73.60;;;;;;5062210;28;20041;-83
2022/06/20 07:15:51;;;;;;;5.78;1.58;;;16.10;71.70;;;;;;5046247;28;20396;-84
2022/06/20 07:18:47;;;;;;;6.28;1.13;;;16.10;73.80;;;;;;5065359;28;20032;-83
2022/06/20 07:21:17;;;;;;;6.05;1.02;;;16.20;72.40;;;;;;5045111;28;20032;-83
2022/06/20 07:23:45;;;;;;;3.60;0.90;;;16.10;71.80;;;;;;5043115;28;20077;-83
2022/06/20 07:26:13;;;;;;;4.43;1.17;;;16.00;72.50;;;;;;5052236;28;20108;-82
2022/06/20 07:28:46;;;;;;;4.72;1.00;;;16.00;74.20;;;;;;5046960;28;20063;-84
2022/06/20 07:31:21;;;;;;;4.00;1.40;;;15.80;75.30;;;;;;5046240;28;20028;-84
2022/06/20 07:33:55;;;;;;;5.13;1.27;;;15.90;74.90;;;;;;5064818;28;20025;-83
2022/06/20 07:36:27;;;;;;;7.50;1.50;;;15.90;75.30;;;;;;5065082;28;20174;-83
2022/06/20 07:39:03;;;;;;;5.45;1.08;;;16.00;74.90;;;;;;5062209;28;20528;-84
2022/06/20 07:42:05;;;;;;;3.45;0.88;;;16.10;74.70;;;;;;5068744;28;20096;-83
2022/06/20 07:44:33;;;;;;;4.18;0.95;;;16.10;74.00;;;;;;5045125;28;20521;-83
2022/06/20 07:47:06;;;;;;;8.27;1.10;;;16.20;70.40;;;;;;5049982;28;20051;-83
2022/06/20 07:49:36;;;;;;;4.57;0.93;;;16.40;70.80;;;;;;5068519;28;20100;-83
2022/06/20 07:52:09;;;;;;;3.67;0.90;;;16.60;71.70;;;;;;5051836;28;20037;-82
2022/06/20 07:54:46;;;;;;;3.67;1.05;;;17.00;70.30;;;;;;5050169;28;20447;-83
2022/06/20 07:57:20;;;;;;;5.45;1.00;;;17.10;70.40;;;;;;5049921;28;20036;-84
2022/06/20 08:00:06;;;;;;;3.22;0.90;;;17.00;69.80;;;;;;5051019;28;20108;-83
2022/06/20 08:02:48;;;;;;;4.88;1.33;;;17.00;69.00;;;;;;5050202;28;20510;-83
2022/06/20 08:05:28;;;;;;;8.23;1.10;;;17.30;67.70;;;;;;5050667;28;20017;-83
2022/06/20 08:08:14;;;;;;;7.10;1.38;;;17.30;66.90;;;;;;5049989;28;20236;-83
2022/06/20 08:10:55;;;;;;;2.97;0.88;;;17.50;68.70;;;;;;5048814;28;20021;-83
2022/06/20 08:13:36;;;;;;;4.88;1.38;;;17.60;65.90;;;;;;5071204;28;20540;-83
2022/06/20 08:16:12;;;;;;;4.70;0.90;;;18.00;65.90;;;;;;5067019;28;20032;-83
2022/06/20 08:18:37;;;;;;;2.97;1.10;;;17.50;65.20;;;;;;5067575;28;20028;-82
2022/06/20 08:21:26;;;;;;;3.17;0.82;;;17.00;67.90;;;;;;5069886;28;20024;-82
2022/06/20 08:24:21;;;;;;;4.82;0.88;;;17.40;66.40;;;;;;5052627;28;20492;-83
2022/06/20 08:26:58;;;;;;;2.83;1.15;;;17.30;67.30;;;;;;5071933;28;20043;-83
2022/06/20 08:29:34;;;;;;;4.95;1.10;;;17.70;66.70;;;;;;5055405;28;20024;-83
2022/06/20 08:32:18;;;;;;;5.07;1.27;;;18.20;65.10;;;;;;5052487;28;20040;-82
2022/06/20 08:34:59;;;;;;;4.95;0.80;;;18.10;61.30;;;;;;5067812;28;20036;-82
2022/06/20 08:37:34;;;;;;;2.20;0.73;;;18.30;60.20;;;;;;5073451;28;20428;-83
2022/06/20 08:40:22;;;;;;;4.15;0.82;;;18.50;59.60;;;;;;5050255;28;20131;-82
2022/06/20 08:43:18;;;;;;;4.40;0.73;;;18.50;59.10;;;;;;5068427;28;20028;-82
2022/06/20 08:46:01;;;;;;;4.15;0.85;;;18.70;58.20;;;;;;5071811;28;20052;-83
2022/06/20 08:49:06;;;;;;;4.15;0.90;;;18.60;59.80;;;;;;5072026;28;20567;-82
2022/06/20 08:52:07;;;;;;;3.78;0.93;;;18.60;59.10;;;;;;5067860;28;20044;-83
2022/06/20 08:54:40;;;;;;;3.63;0.95;;;18.50;58.40;;;;;;5053502;28;20056;-83
2022/06/20 08:57:13;;;;;;;3.00;0.80;;;18.00;58.80;;;;;;5053158;28;20040;-83
2022/06/20 09:00:00;;;;;;;4.18;1.13;;;17.80;59.90;;;;;;5052262;28;20124;-81
2022/06/20 09:02:43;;;;;;;2.42;0.93;;;17.50;61.10;;;;;;5051719;28;20072;-83
2022/06/20 09:05:12;;;;;;;2.97;0.95;;;17.50;62.10;;;;;;5052120;28;20177;-82
2022/06/20 09:08:01;;;;;;;1.80;0.85;;;17.70;61.70;;;;;;5069893;28;20094;-83
2022/06/20 09:10:29;;;;;;;5.68;1.02;;;17.30;62.20;;;;;;5064721;28;20028;-83
2022/06/20 09:13:44;;;;;;;3.15;1.10;;;17.00;63.10;;;;;;5067384;28;20067;-82
2022/06/20 09:16:26;;;;;;;3.13;1.25;;;17.00;63.20;;;;;;5039637;28;20072;-82
2022/06/20 09:19:10;;;;;;;7.40;1.20;;;16.80;64.50;;;;;;5070491;28;20096;-83
2022/06/20 09:22:03;;;;;;;6.60;0.98;;;16.90;65.10;;;;;;5068859;28;20113;-82
2022/06/20 09:24:50;;;;;;;11.55;1.40;;;16.60;66.30;;;;;;5057661;28;20111;-82
2022/06/20 09:27:23;;;;;;;7.78;1.55;;;16.50;67.20;;;;;;5066806;28;20063;-83
2022/06/20 09:30:15;;;;;;;5.47;1.50;;;16.60;67.00;;;;;;5051938;28;20036;-83
2022/06/20 09:32:52;;;;;;;2.63;1.08;;;16.80;66.60;;;;;;5054265;28;20056;-83
2022/06/20 09:35:40;;;;;;;7.22;1.80;;;16.70;66.70;;;;;;5050061;28;20047;-83
2022/06/20 09:38:31;;;;;;;6.43;1.70;;;16.90;66.00;;;;;;5068736;28;20120;-82
2022/06/20 09:41:14;;;;;;;4.00;1.75;;;17.70;63.70;;;;;;5066083;28;20032;-82
2022/06/20 09:43:59;;;;;;;5.13;1.58;;;18.60;61.10;;;;;;5047334;28;20045;-84
2022/06/20 09:46:46;;;;;;;3.97;1.60;;;18.60;59.70;;;;;;5068544;28;20395;-83
2022/06/20 09:49:25;;;;;;;3.53;1.30;;;18.30;60.40;;;;;;5052223;28;20031;-83
2022/06/20 09:52:18;;;;;;;5.53;1.70;;;18.00;62.20;;;;;;5069660;28;20021;-82
2022/06/20 09:55:04;;;;;;;4.75;1.45;;;17.80;62.40;;;;;;5052555;28;20421;-82
2022/06/20 09:57:51;;;;;;;3.58;1.40;;;17.60;61.30;;;;;;5070828;28;20032;-83
2022/06/20 10:00:31;;;;;;;3.22;1.50;;;17.70;60.40;;;;;;5046471;28;20478;-82
2022/06/20 10:03:02;;;;;;;4.63;1.73;;;17.50;59.90;;;;;;5067132;28;20028;-82
2022/06/20 10:06:06;;;;;;;5.25;1.40;;;17.60;61.20;;;;;;5050642;28;20057;-82
2022/06/20 10:09:04;;;;;;;3.95;1.40;;;18.20;57.30;;;;;;5062672;28;20108;-83
2022/06/20 10:11:44;;;;;;;5.82;1.27;;;19.10;56.00;;;;;;5065779;28;20032;-83
2022/06/20 10:14:25;;;;;;;4.93;1.53;;;19.40;53.90;;;;;;5046934;28;20448;-82
2022/06/20 10:16:54;;;;;;;3.38;1.40;;;20.00;51.80;;;;;;5065317;28;20108;-82
2022/06/20 10:19:29;;;;;;;4.15;1.75;;;19.70;50.40;;;;;;5066184;28;20440;-82
2022/06/20 10:22:00;;;;;;;3.90;1.40;;;19.00;52.60;;;;;;5049194;28;20131;-82
2022/06/20 10:24:45;;;;;;;5.60;1.30;;;19.40;52.70;;;;;;5048791;28;20012;-82
2022/06/20 10:27:39;;;;;;;5.70;1.58;;;19.30;53.20;;;;;;5067679;28;20402;-83
2022/06/20 10:30:13;;;;;;;6.05;1.52;;;19.00;53.20;;;;;;5035432;28;20058;-82
2022/06/20 10:33:01;;;;;;;3.35;1.42;;;18.70;52.70;;;;;;5060195;28;20064;-83
2022/06/20 10:35:37;;;;;;;7.95;1.80;;;18.10;55.70;;;;;;5060003;28;20125;-82
2022/06/20 10:38:14;;;;;;;4.95;1.65;;;18.30;56.20;;;;;;5067978;28;20029;-82
2022/06/20 10:41:06;;;;;;;4.70;1.35;;;18.00;56.90;;;;;;5050859;28;20052;-82
2022/06/20 10:43:53;;;;;;;5.57;1.80;;;18.00;56.60;;;;;;5064074;28;20046;-82
2022/06/20 10:46:39;;;;;;;6.95;2.03;;;17.60;57.70;;;;;;5051326;28;20020;-82
2022/06/20 10:49:20;;;;;;;6.53;2.13;;;17.40;58.90;;;;;;5069218;28;20104;-81
2022/06/20 10:52:11;;;;;;;4.75;1.80;;;17.40;57.20;;;;;;5043670;28;20491;-82
2022/06/20 10:55:15;;;;;;;4.72;1.80;;;17.30;58.70;;;;;;5063902;28;20021;-82
2022/06/20 10:57:54;;;;;;;8.95;1.60;;;17.10;55.80;;;;;;5054831;28;20460;-82
2022/06/20 11:00:24;;;;;;;7.38;1.67;;;17.20;56.60;;;;;;5062433;28;20349;-83
2022/06/20 11:03:12;;;;;;;4.07;1.23;;;17.00;57.60;;;;;;5068781;28;20392;-83
2022/06/20 11:05:40;;;;;;;5.88;1.60;;;17.10;58.20;;;;;;5065149;28;20084;-82
2022/06/20 11:08:34;;;;;;;7.05;1.35;;;17.30;56.90;;;;;;5071305;28;20178;-81
2022/06/20 11:11:30;;;;;;;4.00;1.67;;;17.90;56.30;;;;;;5047607;28;20032;-81
2022/06/20 11:14:24;;;;;;;4.65;1.52;;;18.80;53.50;;;;;;5032683;28;20124;-81
2022/06/20 11:17:33;;;;;;;6.03;1.25;;;19.30;52.50;;;;;;5047930;28;20033;-82
2022/06/20 11:20:13;;;;;;;4.72;1.27;;;19.90;52.50;;;;;;5025959;28;20040;-81
2022/06/20 11:22:44;;;;;;;3.10;1.23;;;20.20;48.10;;;;;;5049824;28;20053;-82
2022/06/20 11:25:22;;;;;;;6.13;1.15;;;20.50;47.70;;;;;;5050236;28;20069;-81
2022/06/20 11:28:04;;;;;;;4.68;1.33;;;20.50;47.10;;;;;;5044682;28;20116;-82
2022/06/20 11:30:39;;;;;;;3.50;1.33;;;20.00;48.00;;;;;;5052550;28;20033;-82
2022/06/20 11:34:00;;;;;;;2.45;1.10;;;19.60;49.80;;;;;;5051938;28;20086;-81
2022/06/20 11:36:13;;;;;;;7.70;1.20;;;19.60;50.10;;;;;;5044903;28;20049;-81
2022/06/20 11:39:18;;;;;;;6.65;1.38;;;19.70;48.80;;;;;;5039723;28;20055;-82
2022/06/20 11:41:54;;;;;;;3.85;1.23;;;19.50;49.80;;;;;;5046680;28;20022;-81
2022/06/20 11:44:55;;;;;;;3.03;1.15;;;19.50;49.00;;;;;;5026740;28;20370;-82
2022/06/20 11:47:58;;;;;;;4.10;1.05;;;20.50;47.40;;;;;;5050386;28;20041;-82
2022/06/20 11:50:46;;;;;;;2.75;0.90;;;20.30;46.80;;;;;;5025550;28;20443;-82
2022/06/20 11:53:21;;;;;;;3.10;0.95;;;20.00;47.30;;;;;;5030238;28;20033;-81
2022/06/20 11:55:58;;;;;;;4.47;0.93;;;19.70;48.20;;;;;;5026246;28;20045;-81
2022/06/20 11:58:53;;;;;;;3.55;1.30;;;19.90;47.80;;;;;;5030859;28;20108;-81
2022/06/20 12:01:27;;;;;;;3.75;1.00;;;20.40;48.40;;;;;;5042615;28;20026;-81
2022/06/20 12:04:20;;;;;;;8.70;1.42;;;21.30;46.30;;;;;;5030602;28;20481;-82
2022/06/20 12:07:10;;;;;;;5.65;1.10;;;21.60;45.20;;;;;;5028460;28;20038;-81
2022/06/20 12:10:00;;;;;;;5.63;1.25;;;21.50;45.20;;;;;;5030738;28;20690;-82
2022/06/20 12:12:59;;;;;;;5.00;1.05;;;20.50;46.20;;;;;;5043403;28;20045;-81
2022/06/20 12:15:34;;;;;;;4.07;0.90;;;19.80;48.40;;;;;;5029840;28;20025;-81
2022/06/20 12:18:39;;;;;;;3.22;0.70;;;21.10;46.10;;;;;;5028809;28;20041;-81
2022/06/20 12:24:05;;;;;;;3.97;0.65;;;21.30;42.20;;;;;;5049296;28;20116;-82
2022/06/20 12:26:32;;;;;;;3.45;0.60;;;21.60;40.50;;;;;;5030449;28;20040;-82
2022/06/20 12:29:01;;;;;;;3.63;0.80;;;22.10;40.60;;;;;;5049705;28;20025;-82
2022/06/20 12:31:31;;;;;;;2.58;0.70;;;21.50;41.50;;;;;;5049104;28;20117;-81
2022/06/20 12:34:23;;;;;;;2.13;0.60;;;21.60;41.20;;;;;;5033207;28;20043;-82
2022/06/20 12:37:07;;;;;;;1.80;0.65;;;23.00;39.50;;;;;;5050331;28;20025;-82
2022/06/20 12:39:37;;;;;;;2.20;0.63;;;23.30;39.60;;;;;;5032464;28;20197;-82
2022/06/20 12:42:18;;;;;;;4.30;0.70;;;22.50;40.30;;;;;;5060669;28;20037;-82
2022/06/20 12:45:27;;;;;;;3.17;0.90;;;22.30;40.70;;;;;;5029467;28;20029;-82
2022/06/20 12:48:04;;;;;;;3.05;0.52;;;22.20;41.40;;;;;;5028724;28;20481;-82
2022/06/20 12:50:51;;;;;;;4.18;0.57;;;23.00;39.30;;;;;;5030017;28;20037;-82
2022/06/20 12:53:35;;;;;;;5.28;0.70;;;22.50;39.90;;;;;;5031113;28;20079;-82
2022/06/20 12:56:13;;;;;;;2.30;0.77;;;22.90;40.60;;;;;;5029046;28;20503;-82
2022/06/20 12:58:57;;;;;;;3.97;0.65;;;21.20;42.60;;;;;;5040834;28;20036;-83
2022/06/20 13:01:44;;;;;;;4.05;0.70;;;20.60;45.10;;;;;;5033935;28;20081;-82
2022/06/20 13:04:37;;;;;;;4.47;1.10;;;20.10;46.40;;;;;;5035289;28;20158;-81
2022/06/20 13:07:28;;;;;;;2.17;0.80;;;19.40;49.60;;;;;;5035904;28;20278;-82
2022/06/20 13:10:05;;;;;;;2.80;1.00;;;19.40;49.90;;;;;;5032739;28;20118;-81
2022/06/20 13:12:55;;;;;;;5.15;0.88;;;19.00;50.40;;;;;;5042823;28;20137;-82
2022/06/20 13:15:31;;;;;;;2.05;0.70;;;20.50;46.20;;;;;;5049127;28;20098;-82
2022/06/20 13:18:34;;;;;;;2.92;0.90;;;21.50;42.60;;;;;;5035410;28;20155;-82
2022/06/20 13:21:16;;;;;;;3.05;0.77;;;22.00;43.10;;;;;;5026732;28;20100;-82
2022/06/20 13:24:00;;;;;;;1.45;0.65;;;23.00;40.30;;;;;;5054454;28;20101;-83
2022/06/20 13:26:39;;;;;;;2.17;0.73;;;22.30;42.20;;;;;;5030244;28;20383;-82
2022/06/20 13:29:29;;;;;;;3.13;1.00;;;22.50;42.20;;;;;;5047795;28;20024;-84
2022/06/20 13:32:21;;;;;;;2.20;0.60;;;22.60;39.80;;;;;;5031677;28;21156;-83
2022/06/20 13:35:17;;;;;;;1.27;0.80;;;23.00;39.80;;;;;;4997605;28;20853;-84
2022/06/20 13:38:28;;;;;;;4.20;0.70;;;23.50;39.60;;;;;;5027206;28;20022;-83
2022/06/20 13:41:15;;;;;;;2.90;0.90;;;22.00;41.30;;;;;;4967173;28;20023;-83
2022/06/20 13:44:13;;;;;;;2.45;0.88;;;20.60;44.80;;;;;;5028667;28;20041;-83
2022/06/20 13:46:50;;;;;;;2.17;0.77;;;20.60;44.10;;;;;;5027364;28;20069;-83
2022/06/20 13:49:24;;;;;;;1.80;0.77;;;21.70;42.50;;;;;;5046298;28;20029;-83
2022/06/20 13:51:59;;;;;;;2.97;0.70;;;21.80;42.80;;;;;;5029504;28;20048;-84
2022/06/20 13:54:52;;;;;;;1.77;0.52;;;22.00;39.60;;;;;;5026565;28;20460;-84
2022/06/20 13:57:37;;;;;;;2.03;0.70;;;22.40;40.10;;;;;;5026553;28;20028;-84
2022/06/20 14:00:17;;;;;;;1.30;0.50;;;22.60;39.20;;;;;;5041667;28;20032;-84